PHPXB EHRD-EHRD
Flight info
| Callsign | PHPXB |
|---|---|
| Flight time | 0h 1m |
| Altitude | 1000 |
| Route | VFR CIRCUITS |
| Aircraft | EC35/L-SBDGRY/S |
Departure
| Time | 2026-05-05 19:19 |
|---|---|
| Airport | Rotterdam The Hague Airport (EHRD) |
Arrival
| Time | 2026-05-05 19:21 |
|---|---|
| Airport | Rotterdam The Hague Airport (EHRD) |
| Time | Latitude | Longitude | Altitude | Speed | Heading |
|---|---|---|---|---|---|
| 2026-05-05 19:00 | 51.95134 | 4.44023 | -10 ft | 0 kts | 202° |
| 2026-05-05 19:07 | 51.95135 | 4.44023 | -37 ft | 0 kts | 202° |
| 2026-05-05 19:08 | 51.95134 | 4.44024 | -10 ft | 0 kts | 208° |
| 2026-05-05 19:08 | 51.95132 | 4.44024 | -10 ft | 0 kts | 236° |
| 2026-05-05 19:09 | 51.95132 | 4.44025 | -10 ft | 0 kts | 236° |
| 2026-05-05 19:10 | 51.95126 | 4.44023 | -6 ft | 3 kts | 239° |
| 2026-05-05 19:10 | 51.95094 | 4.43990 | -10 ft | 3 kts | 249° |
| 2026-05-05 19:10 | 51.95094 | 4.43989 | -10 ft | 0 kts | 237° |
| 2026-05-05 19:11 | 51.95063 | 4.43906 | -4 ft | 12 kts | 240° |
| 2026-05-05 19:11 | 51.95030 | 4.43831 | -2 ft | 6 kts | 240° |
| 2026-05-05 19:11 | 51.95002 | 4.43764 | -2 ft | 6 kts | 243° |
| 2026-05-05 19:11 | 51.94988 | 4.43730 | -3 ft | 7 kts | 292° |
| 2026-05-05 19:12 | 51.95030 | 4.43661 | 5 ft | 9 kts | 333° |
| 2026-05-05 19:12 | 51.95089 | 4.43589 | 6 ft | 12 kts | 329° |
| 2026-05-05 19:12 | 51.95166 | 4.43511 | 4 ft | 14 kts | 328° |
| 2026-05-05 19:12 | 51.95229 | 4.43439 | 11 ft | 8 kts | 307° |
| 2026-05-05 19:13 | 51.95229 | 4.43385 | 2 ft | 6 kts | 256° |
| 2026-05-05 19:13 | 51.95210 | 4.43348 | -6 ft | 4 kts | 258° |
| 2026-05-05 19:13 | 51.95191 | 4.43286 | -5 ft | 8 kts | 255° |
| 2026-05-05 19:13 | 51.95157 | 4.43185 | 0 ft | 12 kts | 283° |
| 2026-05-05 19:14 | 51.95168 | 4.43109 | 1 ft | 5 kts | 0° |
| 2026-05-05 19:14 | 51.95188 | 4.43101 | -9 ft | 0 kts | 352° |
| 2026-05-05 19:15 | 51.95187 | 4.43101 | -9 ft | 0 kts | 351° |
| 2026-05-05 19:18 | 51.95192 | 4.43098 | -4 ft | 6 kts | 355° |
| 2026-05-05 19:18 | 51.95312 | 4.43131 | 26 ft | 29 kts | 43° |
| 2026-05-05 19:19 | 51.95503 | 4.43616 | 169 ft | 77 kts | 55° |
| 2026-05-05 19:19 | 51.95866 | 4.44476 | 253 ft | 99 kts | 48° |
| 2026-05-05 19:19 | 51.96417 | 4.44769 | 767 ft | 76 kts | 343° |
| 2026-05-05 19:19 | 51.96495 | 4.44123 | 742 ft | 68 kts | 247° |
| 2026-05-05 19:20 | 51.96208 | 4.43371 | 439 ft | 90 kts | 244° |
| 2026-05-05 19:20 | 51.95865 | 4.42436 | 375 ft | 102 kts | 242° |
| 2026-05-05 19:20 | 51.95379 | 4.41643 | 496 ft | 91 kts | 194° |
| 2026-05-05 19:20 | 51.95040 | 4.42026 | 431 ft | 58 kts | 90° |
| 2026-05-05 19:21 | 51.95137 | 4.42671 | 253 ft | 60 kts | 52° |
| 2026-05-05 19:21 | 51.95341 | 4.43176 | 82 ft | 39 kts | 43° |
| 2026-05-05 19:21 | 51.95421 | 4.43356 | 6 ft | 6 kts | 61° |
| 2026-05-05 19:21 | 51.95438 | 4.43402 | -8 ft | 0 kts | 52° |
| 2026-05-05 19:22 | 51.95476 | 4.43555 | 61 ft | 47 kts | 62° |
| 2026-05-05 19:22 | 51.95753 | 4.44285 | 50 ft | 100 kts | 51° |
| 2026-05-05 19:22 | 51.96286 | 4.44859 | 359 ft | 93 kts | 8° |
| 2026-05-05 19:22 | 51.96773 | 4.44184 | 499 ft | 110 kts | 296° |
| 2026-05-05 19:23 | 51.96516 | 4.42949 | 475 ft | 128 kts | 241° |
| 2026-05-05 19:23 | 51.96027 | 4.41679 | 466 ft | 133 kts | 240° |
| 2026-05-05 19:23 | 51.95361 | 4.41080 | 600 ft | 102 kts | 156° |
| 2026-05-05 19:23 | 51.94899 | 4.41576 | 650 ft | 62 kts | 109° |
| 2026-05-05 19:24 | 51.94944 | 4.42177 | 460 ft | 59 kts | 56° |
| 2026-05-05 19:24 | 51.95193 | 4.42770 | 242 ft | 64 kts | 60° |
| 2026-05-05 19:24 | 51.95409 | 4.43316 | 69 ft | 45 kts | 59° |
| 2026-05-05 19:24 | 51.95458 | 4.43441 | -6 ft | 0 kts | 50° |
| 2026-05-05 19:25 | 51.95487 | 4.43578 | 51 ft | 49 kts | 56° |
| 2026-05-05 19:25 | 51.95826 | 4.44344 | 168 ft | 96 kts | 45° |
| 2026-05-05 19:25 | 51.96430 | 4.44689 | 482 ft | 97 kts | 359° |
| 2026-05-05 19:25 | 51.96822 | 4.43724 | 529 ft | 127 kts | 274° |
| 2026-05-05 19:26 | 51.96416 | 4.42404 | 498 ft | 140 kts | 241° |
| 2026-05-05 19:26 | 51.95667 | 4.41965 | 793 ft | 104 kts | 148° |
| 2026-05-05 19:26 | 51.95385 | 4.42607 | 706 ft | 45 kts | 81° |
| 2026-05-05 19:26 | 51.95334 | 4.42956 | 378 ft | 25 kts | 69° |
| 2026-05-05 19:27 | 51.95285 | 4.43049 | 105 ft | 2 kts | 56° |
| 2026-05-05 19:27 | 51.95325 | 4.43137 | 0 ft | 1 kts | 44° |
| 2026-05-05 19:27 | 51.95345 | 4.43191 | 15 ft | 30 kts | 50° |
| 2026-05-05 19:27 | 51.95590 | 4.43807 | 44 ft | 87 kts | 53° |
| 2026-05-05 19:28 | 51.96012 | 4.44702 | 141 ft | 104 kts | 36° |
| 2026-05-05 19:28 | 51.96634 | 4.44422 | 472 ft | 108 kts | 317° |
| 2026-05-05 19:28 | 51.96562 | 4.43173 | 463 ft | 128 kts | 244° |
| 2026-05-05 19:28 | 51.96008 | 4.41928 | 492 ft | 139 kts | 237° |
| 2026-05-05 19:29 | 51.95191 | 4.41613 | 570 ft | 127 kts | 143° |
| 2026-05-05 19:29 | 51.95123 | 4.42720 | 393 ft | 105 kts | 55° |
| 2026-05-05 19:29 | 51.95566 | 4.43724 | 115 ft | 96 kts | 43° |
| 2026-05-05 19:29 | 51.95730 | 4.44151 | -1 ft | 3 kts | 41° |
| 2026-05-05 19:30 | 51.95774 | 4.44280 | 27 ft | 45 kts | 58° |
| 2026-05-05 19:30 | 51.96150 | 4.44725 | 260 ft | 81 kts | 16° |
| 2026-05-05 19:30 | 51.96587 | 4.44073 | 526 ft | 111 kts | 296° |
| 2026-05-05 19:30 | 51.96256 | 4.42903 | 611 ft | 120 kts | 232° |
| 2026-05-05 19:31 | 51.95751 | 4.41811 | 517 ft | 122 kts | 237° |
| 2026-05-05 19:31 | 51.95113 | 4.41402 | 552 ft | 92 kts | 151° |
| 2026-05-05 19:31 | 51.94942 | 4.42097 | 437 ft | 60 kts | 59° |
| 2026-05-05 19:31 | 51.95147 | 4.42643 | 236 ft | 55 kts | 46° |
| 2026-05-05 19:32 | 51.95318 | 4.43092 | 68 ft | 31 kts | 42° |
| 2026-05-05 19:32 | 51.95353 | 4.43286 | 29 ft | 34 kts | 98° |
| 2026-05-05 19:32 | 51.95176 | 4.43855 | 34 ft | 47 kts | 110° |
| 2026-05-05 19:32 | 51.95112 | 4.43987 | 14 ft | 10 kts | 13° |
| 2026-05-05 19:33 | 51.95133 | 4.44019 | 3 ft | 2 kts | 8° |
| 2026-05-05 19:33 | 51.95137 | 4.44023 | -10 ft | 0 kts | 7° |